Time,TemperatureF,DewpointF,PressureIn,WindDirection,WindDirectionDegrees,WindSpeedMPH,WindSpeedGustMPH,Humidity,HourlyPrecipIn,Conditions,Clouds,dailyrainin,SolarRadiationWatts/m^2,SoftwareType,DateUTC
2013-02-03 00:11:00,19.0,9.0,-100.00,NE,44,0.0,6.0,63,0.00,,,0.00,0.000000,,2013-02-03 07:11:00,
2013-02-03 00:21:00,19.0,9.0,-100.00,NE,44,0.0,6.0,63,0.00,,,0.00,0.000000,,2013-02-03 07:21:00,
2013-02-03 00:31:00,19.0,9.0,-100.00,NE,44,0.0,6.0,63,0.00,,,0.00,0.000000,,2013-02-03 07:31:00,
2013-02-03 00:41:00,19.0,9.0,-100.00,NE,44,0.0,6.0,63,0.00,,,0.00,0.000000,,2013-02-03 07:41:00,
2013-02-03 01:11:00,19.0,8.0,-100.00,ENE,67,0.0,4.0,61,0.00,,,0.00,0.000000,,2013-02-03 08:11:00,
2013-02-03 01:22:00,19.0,8.0,-100.00,ENE,67,0.0,4.0,61,0.00,,,0.00,0.000000,,2013-02-03 08:22:00,
2013-02-03 01:32:00,19.0,8.0,-100.00,ENE,67,0.0,4.0,61,0.00,,,0.00,0.000000,,2013-02-03 08:32:00,
2013-02-03 02:11:00,16.0,9.0,-100.00,SW,227,3.0,4.0,72,0.00,,,0.00,0.000000,,2013-02-03 09:11:00,
2013-02-03 02:21:00,16.0,9.0,-100.00,SW,227,3.0,4.0,72,0.00,,,0.00,0.000000,,2013-02-03 09:21:00,
2013-02-03 02:31:00,16.0,9.0,-100.00,SW,227,3.0,4.0,72,0.00,,,0.00,0.000000,,2013-02-03 09:31:00,
2013-02-03 02:41:00,16.0,9.0,-100.00,SW,227,3.0,4.0,72,0.00,,,0.00,0.000000,,2013-02-03 09:41:00,
2013-02-03 03:11:00,16.0,6.0,-100.00,North,10,0.0,3.0,65,0.00,,,0.00,0.000000,,2013-02-03 10:11:00,
2013-02-03 03:21:00,16.0,6.0,-100.00,North,10,0.0,3.0,65,0.00,,,0.00,0.000000,,2013-02-03 10:21:00,
2013-02-03 03:31:00,16.0,6.0,-100.00,North,10,0.0,3.0,65,0.00,,,0.00,0.000000,,2013-02-03 10:31:00,
2013-02-03 03:41:00,16.0,6.0,-100.00,North,10,0.0,3.0,65,0.00,,,0.00,0.000000,,2013-02-03 10:41:00,
2013-02-03 04:11:00,16.0,5.0,-100.00,ENE,71,0.0,3.0,61,0.00,,,0.00,0.000000,,2013-02-03 11:11:00,
2013-02-03 04:22:00,16.0,5.0,-100.00,ENE,71,0.0,3.0,61,0.00,,,0.00,0.000000,,2013-02-03 11:22:00,
2013-02-03 04:31:00,16.0,5.0,-100.00,ENE,71,0.0,3.0,61,0.00,,,0.00,0.000000,,2013-02-03 11:31:00,
2013-02-03 04:41:00,16.0,5.0,-100.00,ENE,71,0.0,3.0,61,0.00,,,0.00,0.000000,,2013-02-03 11:41:00,
2013-02-03 05:11:00,17.0,7.0,-100.00,ENE,68,5.0,6.0,64,0.00,,,0.00,0.000000,,2013-02-03 12:11:00,
2013-02-03 05:22:00,17.0,7.0,-100.00,ENE,68,5.0,6.0,64,0.00,,,0.00,0.000000,,2013-02-03 12:22:00,
2013-02-03 05:42:00,17.0,7.0,-100.00,ENE,68,5.0,6.0,64,0.00,,,0.00,0.000000,,2013-02-03 12:42:00,
2013-02-03 06:11:00,13.0,6.0,-100.00,SE,135,0.0,5.0,72,0.00,,,0.00,0.000000,,2013-02-03 13:11:00,
2013-02-03 06:21:00,13.0,6.0,-100.00,SE,135,0.0,5.0,72,0.00,,,0.00,0.000000,,2013-02-03 13:21:00,
2013-02-03 06:41:00,13.0,6.0,-100.00,SE,135,0.0,5.0,72,0.00,,,0.00,0.000000,,2013-02-03 13:41:00,
2013-02-03 07:11:00,13.0,5.0,-100.00,North,7,0.0,5.0,69,0.00,,,0.00,0.000000,,2013-02-03 14:11:00,
2013-02-03 07:21:00,13.0,5.0,-100.00,North,7,0.0,5.0,69,0.00,,,0.00,0.000000,,2013-02-03 14:21:00,
2013-02-03 07:42:00,13.0,5.0,-100.00,North,7,0.0,5.0,69,0.00,,,0.00,0.000000,,2013-02-03 14:42:00,
2013-02-03 08:11:00,14.0,7.0,-100.00,SSE,167,0.0,4.0,72,0.00,,,0.00,11.000000,,2013-02-03 15:11:00,
2013-02-03 08:21:00,14.0,7.0,-100.00,SSE,167,0.0,4.0,72,0.00,,,0.00,11.000000,,2013-02-03 15:21:00,
2013-02-03 08:41:00,14.0,7.0,-100.00,SSE,167,0.0,4.0,72,0.00,,,0.00,11.000000,,2013-02-03 15:41:00,
2013-02-03 09:11:00,18.0,8.0,-100.00,NNE,20,0.0,0.0,65,0.00,,,0.00,95.000000,,2013-02-03 16:11:00,
2013-02-03 09:21:00,18.0,8.0,-100.00,NNE,20,0.0,0.0,65,0.00,,,0.00,95.000000,,2013-02-03 16:21:00,
2013-02-03 09:32:00,18.0,8.0,-100.00,NNE,20,0.0,0.0,65,0.00,,,0.00,95.000000,,2013-02-03 16:32:00,
2013-02-03 09:41:00,18.0,8.0,-100.00,NNE,20,0.0,0.0,65,0.00,,,0.00,95.000000,,2013-02-03 16:41:00,
2013-02-03 10:11:00,20.0,6.0,-100.00,WSW,255,1.0,4.0,55,-99.99,,,0.00,270.000000,,2013-02-03 17:11:00,
2013-02-03 10:21:00,20.0,6.0,-100.00,WSW,255,1.0,4.0,55,-99.99,,,0.00,270.000000,,2013-02-03 17:21:00,
2013-02-03 10:31:00,20.0,6.0,-100.00,WSW,255,1.0,4.0,55,-99.99,,,0.00,270.000000,,2013-02-03 17:31:00,
2013-02-03 11:11:00,24.0,5.0,-100.00,SW,228,0.0,3.0,44,-99.99,,,0.00,349.000000,,2013-02-03 18:11:00,
2013-02-03 11:23:00,24.0,5.0,-100.00,SW,228,0.0,3.0,44,-99.99,,,0.00,349.000000,,2013-02-03 18:23:00,
2013-02-03 11:32:00,24.0,5.0,-100.00,SW,228,0.0,3.0,44,-99.99,,,0.00,349.000000,,2013-02-03 18:32:00,
2013-02-03 11:41:00,24.0,5.0,-100.00,SW,228,0.0,3.0,44,-99.99,,,0.00,349.000000,,2013-02-03 18:41:00,
2013-02-03 12:11:00,26.0,4.0,-100.00,SSW,203,0.0,5.0,39,-99.99,,,0.00,357.000000,,2013-02-03 19:11:00,
2013-02-03 12:21:00,26.0,4.0,-100.00,SSW,203,0.0,5.0,39,-99.99,,,0.00,357.000000,,2013-02-03 19:21:00,
2013-02-03 12:31:00,26.0,4.0,-100.00,SSW,203,0.0,5.0,39,-99.99,,,0.00,357.000000,,2013-02-03 19:31:00,
2013-02-03 12:41:00,26.0,4.0,-100.00,SSW,203,0.0,5.0,39,-99.99,,,0.00,357.000000,,2013-02-03 19:41:00,
2013-02-03 13:12:00,24.0,9.0,-100.00,SW,233,3.0,6.0,51,0.00,,,0.00,320.000000,,2013-02-03 20:12:00,
2013-02-03 13:21:00,24.0,9.0,-100.00,SW,233,3.0,6.0,51,0.00,,,0.00,320.000000,,2013-02-03 20:21:00,
2013-02-03 13:32:00,24.0,9.0,-100.00,SW,233,3.0,6.0,51,0.00,,,0.00,320.000000,,2013-02-03 20:32:00,
2013-02-03 13:42:00,24.0,9.0,-100.00,SW,233,3.0,6.0,51,0.00,,,0.00,320.000000,,2013-02-03 20:42:00,
2013-02-03 14:11:00,33.0,0.0,-100.00,WNW,303,1.0,6.0,24,0.00,,,0.00,419.000000,,2013-02-03 21:11:00,
2013-02-03 14:21:00,33.0,0.0,-100.00,WNW,303,1.0,6.0,24,0.00,,,0.00,419.000000,,2013-02-03 21:21:00,
2013-02-03 14:32:00,33.0,0.0,-100.00,WNW,303,1.0,6.0,24,0.00,,,0.00,419.000000,,2013-02-03 21:32:00,
2013-02-03 15:11:00,30.0,6.0,-100.00,NW,313,4.0,12.0,36,0.00,,,0.00,361.000000,,2013-02-03 22:11:00,
2013-02-03 15:21:00,30.0,6.0,-100.00,NW,313,4.0,12.0,36,0.00,,,0.00,361.000000,,2013-02-03 22:21:00,
2013-02-03 15:32:00,30.0,6.0,-100.00,NW,313,4.0,12.0,36,0.00,,,0.00,361.000000,,2013-02-03 22:32:00,
2013-02-03 15:41:00,30.0,6.0,-100.00,NW,313,4.0,12.0,36,0.00,,,0.00,361.000000,,2013-02-03 22:41:00,
2013-02-03 16:12:00,28.0,6.0,-100.00,NW,310,6.0,14.0,39,0.00,,,0.00,296.000000,,2013-02-03 23:12:00,
2013-02-03 16:22:00,28.0,6.0,-100.00,NW,310,6.0,14.0,39,0.00,,,0.00,296.000000,,2013-02-03 23:22:00,
2013-02-03 16:32:00,28.0,6.0,-100.00,NW,310,6.0,14.0,39,0.00,,,0.00,296.000000,,2013-02-03 23:32:00,
2013-02-03 16:41:00,28.0,6.0,-100.00,NW,310,6.0,14.0,39,0.00,,,0.00,296.000000,,2013-02-03 23:41:00,
2013-02-03 17:11:00,26.0,9.0,-100.00,NNW,327,3.0,15.0,48,0.00,,,0.00,119.000000,,2013-02-04 00:11:00,
2013-02-03 17:21:00,26.0,9.0,-100.00,NNW,327,3.0,15.0,48,0.00,,,0.00,119.000000,,2013-02-04 00:21:00,
2013-02-03 17:31:00,26.0,9.0,-100.00,NNW,327,3.0,15.0,48,0.00,,,0.00,119.000000,,2013-02-04 00:31:00,
2013-02-03 17:41:00,26.0,9.0,-100.00,NNW,327,3.0,15.0,48,0.00,,,0.00,119.000000,,2013-02-04 00:41:00,
2013-02-03 18:11:00,24.0,15.0,-100.00,WNW,300,10.0,15.0,67,0.00,,,0.00,44.000000,,2013-02-04 01:11:00,
2013-02-03 18:21:00,24.0,15.0,-100.00,WNW,300,10.0,15.0,67,0.00,,,0.00,44.000000,,2013-02-04 01:21:00,
2013-02-03 18:31:00,24.0,15.0,-100.00,WNW,300,10.0,15.0,67,0.00,,,0.00,44.000000,,2013-02-04 01:31:00,
2013-02-03 18:41:00,24.0,15.0,-100.00,WNW,300,10.0,15.0,67,0.00,,,0.00,44.000000,,2013-02-04 01:41:00,
2013-02-03 19:11:00,22.0,21.0,-100.00,West,264,0.0,15.0,95,0.00,,,0.00,0.000000,,2013-02-04 02:11:00,
2013-02-03 19:21:00,22.0,21.0,-100.00,West,264,0.0,15.0,95,0.00,,,0.00,0.000000,,2013-02-04 02:21:00,
2013-02-03 19:31:00,22.0,21.0,-100.00,West,264,0.0,15.0,95,0.00,,,0.00,0.000000,,2013-02-04 02:31:00,
2013-02-03 19:41:00,22.0,21.0,-100.00,West,264,0.0,15.0,95,0.00,,,0.00,0.000000,,2013-02-04 02:41:00,
2013-02-03 20:11:00,23.0,20.0,-100.00,SW,229,6.0,13.0,88,0.00,,,0.00,0.000000,,2013-02-04 03:11:00,
2013-02-03 20:21:00,23.0,20.0,-100.00,SW,229,6.0,13.0,88,0.00,,,0.00,0.000000,,2013-02-04 03:21:00,
2013-02-03 20:31:00,23.0,20.0,-100.00,SW,229,6.0,13.0,88,0.00,,,0.00,0.000000,,2013-02-04 03:31:00,
2013-02-03 20:41:00,23.0,20.0,-100.00,SW,229,6.0,13.0,88,0.00,,,0.00,0.000000,,2013-02-04 03:41:00,
2013-02-03 21:11:00,22.0,21.0,-100.00,SW,220,6.0,9.0,94,0.00,,,0.00,0.000000,,2013-02-04 04:11:00,
2013-02-03 21:21:00,22.0,21.0,-100.00,SW,220,6.0,9.0,94,0.00,,,0.00,0.000000,,2013-02-04 04:21:00,
2013-02-03 21:31:00,22.0,21.0,-100.00,SW,220,6.0,9.0,94,0.00,,,0.00,0.000000,,2013-02-04 04:31:00,
2013-02-03 21:41:00,22.0,21.0,-100.00,SW,220,6.0,9.0,94,0.00,,,0.00,0.000000,,2013-02-04 04:41:00,
2013-02-03 22:11:00,22.0,21.0,-100.00,West,272,8.0,12.0,96,0.00,,,0.00,0.000000,,2013-02-04 05:11:00,
2013-02-03 22:22:00,22.0,21.0,-100.00,West,272,8.0,12.0,96,0.00,,,0.00,0.000000,,2013-02-04 05:22:00,
2013-02-03 22:33:00,22.0,21.0,-100.00,West,272,8.0,12.0,96,0.00,,,0.00,0.000000,,2013-02-04 05:33:00,
2013-02-03 22:41:00,22.0,21.0,-100.00,West,272,8.0,12.0,96,0.00,,,0.00,0.000000,,2013-02-04 05:41:00,
2013-02-03 23:11:00,22.0,22.0,-100.00,SSW,197,5.0,12.0,98,0.00,,,0.00,0.000000,,2013-02-04 06:11:00,
2013-02-03 23:21:00,22.0,22.0,-100.00,SSW,197,5.0,12.0,98,0.00,,,0.00,0.000000,,2013-02-04 06:21:00,
2013-02-03 23:31:00,22.0,22.0,-100.00,SSW,197,5.0,12.0,98,0.00,,,0.00,0.000000,,2013-02-04 06:31:00,
2013-02-03 23:41:00,22.0,22.0,-100.00,SSW,197,5.0,12.0,98,0.00,,,0.00,0.000000,,2013-02-04 06:41:00,